Terminal Aerodrome Forecast
Issued by NWS

Home | Current Version | Previous Version | Text Only | Print | Product List | Glossary On
Versions: 1 2 3 4 5 6 7 8 9 10 11 12 13 14 15 16 17 18 19 20 21
000
FTUS45 KGJT 051739
TAFDRO
TAF
KDRO 051739Z 0518/0618 07004KT P6SM SKC
     FM052000 31006KT P6SM FEW200
     FM060200 30007KT P6SM SCT150
     FM060600 01005KT P6SM SCT150=

USA.gov is the U.S. government's official web portal to all federal, state and local government web resources and services.